sensor_id;sensor_type;location;lat;lon;timestamp;P1;durP1;ratioP1;P2;durP2;ratioP2
3789;SDS011;1910;49.042;9.028;2023-05-20T00:01:08;3.30;;;2.43;;
3789;SDS011;1910;49.042;9.028;2023-05-20T00:03:33;6.53;;;3.77;;
3789;SDS011;1910;49.042;9.028;2023-05-20T00:05:59;5.27;;;2.80;;
3789;SDS011;1910;49.042;9.028;2023-05-20T00:08:24;5.23;;;3.40;;
3789;SDS011;1910;49.042;9.028;2023-05-20T00:10:50;3.20;;;2.37;;
3789;SDS011;1910;49.042;9.028;2023-05-20T00:13:15;6.20;;;3.33;;
3789;SDS011;1910;49.042;9.028;2023-05-20T00:15:41;3.93;;;2.90;;
3789;SDS011;1910;49.042;9.028;2023-05-20T00:18:07;6.97;;;3.53;;
3789;SDS011;1910;49.042;9.028;2023-05-20T00:20:32;5.40;;;2.90;;
3789;SDS011;1910;49.042;9.028;2023-05-20T00:22:58;3.33;;;3.03;;
3789;SDS011;1910;49.042;9.028;2023-05-20T00:25:24;7.40;;;3.40;;
3789;SDS011;1910;49.042;9.028;2023-05-20T00:27:50;4.13;;;3.83;;
3789;SDS011;1910;49.042;9.028;2023-05-20T00:30:15;8.33;;;3.63;;
3789;SDS011;1910;49.042;9.028;2023-05-20T00:32:41;5.55;;;3.35;;
3789;SDS011;1910;49.042;9.028;2023-05-20T00:35:07;5.03;;;4.03;;
3789;SDS011;1910;49.042;9.028;2023-05-20T00:37:34;5.13;;;3.80;;
3789;SDS011;1910;49.042;9.028;2023-05-20T00:40:00;3.53;;;3.17;;
3789;SDS011;1910;49.042;9.028;2023-05-20T00:42:26;9.80;;;3.07;;
3789;SDS011;1910;49.042;9.028;2023-05-20T00:44:53;5.10;;;2.83;;
3789;SDS011;1910;49.042;9.028;2023-05-20T00:47:21;4.07;;;3.25;;
3789;SDS011;1910;49.042;9.028;2023-05-20T00:49:52;5.18;;;2.95;;
3789;SDS011;1910;49.042;9.028;2023-05-20T00:52:18;6.03;;;2.87;;
3789;SDS011;1910;49.042;9.028;2023-05-20T00:54:43;3.00;;;2.50;;
3789;SDS011;1910;49.042;9.028;2023-05-20T00:57:10;6.45;;;3.17;;
3789;SDS011;1910;49.042;9.028;2023-05-20T00:59:36;4.22;;;3.00;;
3789;SDS011;1910;49.042;9.028;2023-05-20T01:02:03;9.80;;;3.55;;
3789;SDS011;1910;49.042;9.028;2023-05-20T01:04:29;5.95;;;2.85;;
3789;SDS011;1910;49.042;9.028;2023-05-20T01:06:56;3.97;;;2.60;;
3789;SDS011;1910;49.042;9.028;2023-05-20T01:09:23;3.35;;;2.60;;
3789;SDS011;1910;49.042;9.028;2023-05-20T01:11:51;4.25;;;3.85;;
3789;SDS011;1910;49.042;9.028;2023-05-20T01:14:27;4.40;;;3.35;;
3789;SDS011;1910;49.042;9.028;2023-05-20T01:16:55;4.78;;;3.33;;
3789;SDS011;1910;49.042;9.028;2023-05-20T01:19:37;3.80;;;3.38;;
3789;SDS011;1910;49.042;9.028;2023-05-20T01:22:09;4.75;;;3.30;;
3789;SDS011;1910;49.042;9.028;2023-05-20T01:24:44;4.15;;;2.92;;
3789;SDS011;1910;49.042;9.028;2023-05-20T01:27:17;3.20;;;2.80;;
3789;SDS011;1910;49.042;9.028;2023-05-20T01:29:44;3.47;;;2.90;;
3789;SDS011;1910;49.042;9.028;2023-05-20T01:32:14;4.25;;;2.90;;
3789;SDS011;1910;49.042;9.028;2023-05-20T01:34:47;3.95;;;3.17;;
3789;SDS011;1910;49.042;9.028;2023-05-20T01:37:15;3.75;;;2.75;;
3789;SDS011;1910;49.042;9.028;2023-05-20T01:39:42;5.25;;;3.58;;
3789;SDS011;1910;49.042;9.028;2023-05-20T01:42:09;3.10;;;2.45;;
3789;SDS011;1910;49.042;9.028;2023-05-20T01:44:35;7.63;;;2.85;;
3789;SDS011;1910;49.042;9.028;2023-05-20T01:47:01;5.60;;;3.35;;
3789;SDS011;1910;49.042;9.028;2023-05-20T01:49:27;3.70;;;3.00;;
3789;SDS011;1910;49.042;9.028;2023-05-20T01:51:52;6.97;;;3.60;;
3789;SDS011;1910;49.042;9.028;2023-05-20T01:54:18;4.03;;;3.10;;
3789;SDS011;1910;49.042;9.028;2023-05-20T01:56:44;4.50;;;3.00;;
3789;SDS011;1910;49.042;9.028;2023-05-20T01:59:11;4.50;;;3.22;;
3789;SDS011;1910;49.042;9.028;2023-05-20T02:01:36;3.37;;;2.40;;
3789;SDS011;1910;49.042;9.028;2023-05-20T02:04:02;7.07;;;3.10;;
3789;SDS011;1910;49.042;9.028;2023-05-20T02:06:27;4.97;;;3.13;;
3789;SDS011;1910;49.042;9.028;2023-05-20T02:08:53;3.43;;;3.13;;
3789;SDS011;1910;49.042;9.028;2023-05-20T02:11:19;6.20;;;2.97;;
3789;SDS011;1910;49.042;9.028;2023-05-20T02:13:45;3.90;;;3.22;;
3789;SDS011;1910;49.042;9.028;2023-05-20T02:16:11;6.33;;;3.10;;
3789;SDS011;1910;49.042;9.028;2023-05-20T02:18:37;4.87;;;3.67;;
3789;SDS011;1910;49.042;9.028;2023-05-20T02:21:03;8.10;;;2.90;;
3789;SDS011;1910;49.042;9.028;2023-05-20T02:23:32;4.40;;;3.60;;
3789;SDS011;1910;49.042;9.028;2023-05-20T02:25:58;3.28;;;2.97;;
3789;SDS011;1910;49.042;9.028;2023-05-20T02:28:24;3.10;;;2.70;;
3789;SDS011;1910;49.042;9.028;2023-05-20T02:30:50;6.93;;;4.50;;
3789;SDS011;1910;49.042;9.028;2023-05-20T02:33:16;5.37;;;3.27;;
3789;SDS011;1910;49.042;9.028;2023-05-20T02:35:42;4.05;;;2.80;;
3789;SDS011;1910;49.042;9.028;2023-05-20T02:38:07;5.60;;;3.30;;
3789;SDS011;1910;49.042;9.028;2023-05-20T02:40:33;6.53;;;3.17;;
3789;SDS011;1910;49.042;9.028;2023-05-20T02:42:59;5.10;;;3.43;;
3789;SDS011;1910;49.042;9.028;2023-05-20T02:45:25;6.28;;;3.33;;
3789;SDS011;1910;49.042;9.028;2023-05-20T02:47:51;5.30;;;3.15;;
3789;SDS011;1910;49.042;9.028;2023-05-20T02:50:17;6.23;;;3.60;;
3789;SDS011;1910;49.042;9.028;2023-05-20T02:52:43;7.87;;;4.13;;
3789;SDS011;1910;49.042;9.028;2023-05-20T02:55:09;3.63;;;3.22;;
3789;SDS011;1910;49.042;9.028;2023-05-20T02:57:35;5.65;;;3.65;;
3789;SDS011;1910;49.042;9.028;2023-05-20T03:00:04;5.50;;;3.30;;
3789;SDS011;1910;49.042;9.028;2023-05-20T03:02:31;4.55;;;3.30;;
3789;SDS011;1910;49.042;9.028;2023-05-20T03:04:58;6.90;;;3.40;;
3789;SDS011;1910;49.042;9.028;2023-05-20T03:07:23;4.93;;;3.80;;
3789;SDS011;1910;49.042;9.028;2023-05-20T03:09:49;3.50;;;2.65;;
3789;SDS011;1910;49.042;9.028;2023-05-20T03:12:16;7.72;;;3.33;;
3789;SDS011;1910;49.042;9.028;2023-05-20T03:14:41;7.00;;;4.23;;
3789;SDS011;1910;49.042;9.028;2023-05-20T03:17:08;6.30;;;3.67;;
3789;SDS011;1910;49.042;9.028;2023-05-20T03:19:34;6.13;;;4.57;;
3789;SDS011;1910;49.042;9.028;2023-05-20T03:22:01;3.72;;;3.28;;
3789;SDS011;1910;49.042;9.028;2023-05-20T03:24:27;4.80;;;2.87;;
3789;SDS011;1910;49.042;9.028;2023-05-20T03:26:53;6.60;;;3.70;;
3789;SDS011;1910;49.042;9.028;2023-05-20T03:29:18;2.87;;;2.53;;
3789;SDS011;1910;49.042;9.028;2023-05-20T03:31:45;3.25;;;2.50;;
3789;SDS011;1910;49.042;9.028;2023-05-20T03:34:11;4.50;;;3.17;;
3789;SDS011;1910;49.042;9.028;2023-05-20T03:36:37;6.17;;;2.90;;
3789;SDS011;1910;49.042;9.028;2023-05-20T03:39:03;3.70;;;2.90;;
3789;SDS011;1910;49.042;9.028;2023-05-20T03:41:28;6.00;;;3.13;;
3789;SDS011;1910;49.042;9.028;2023-05-20T03:43:54;4.87;;;3.13;;
3789;SDS011;1910;49.042;9.028;2023-05-20T03:46:20;3.60;;;2.50;;
3789;SDS011;1910;49.042;9.028;2023-05-20T03:48:46;3.30;;;2.60;;
3789;SDS011;1910;49.042;9.028;2023-05-20T03:51:12;4.07;;;2.93;;
3789;SDS011;1910;49.042;9.028;2023-05-20T03:53:37;4.20;;;2.30;;
3789;SDS011;1910;49.042;9.028;2023-05-20T03:56:03;8.73;;;3.00;;
3789;SDS011;1910;49.042;9.028;2023-05-20T03:58:29;5.47;;;3.27;;
3789;SDS011;1910;49.042;9.028;2023-05-20T04:00:55;3.00;;;2.67;;
3789;SDS011;1910;49.042;9.028;2023-05-20T04:03:21;3.97;;;3.13;;
3789;SDS011;1910;49.042;9.028;2023-05-20T04:05:47;4.63;;;2.65;;
3789;SDS011;1910;49.042;9.028;2023-05-20T04:08:13;6.03;;;3.80;;
3789;SDS011;1910;49.042;9.028;2023-05-20T04:10:42;4.50;;;3.33;;
3789;SDS011;1910;49.042;9.028;2023-05-20T04:13:07;5.10;;;2.85;;
3789;SDS011;1910;49.042;9.028;2023-05-20T04:15:37;4.15;;;2.80;;
3789;SDS011;1910;49.042;9.028;2023-05-20T04:18:03;4.85;;;3.30;;
3789;SDS011;1910;49.042;9.028;2023-05-20T04:20:32;3.50;;;3.28;;
3789;SDS011;1910;49.042;9.028;2023-05-20T04:22:58;23.40;;;3.83;;
3789;SDS011;1910;49.042;9.028;2023-05-20T04:25:23;5.23;;;3.33;;
3789;SDS011;1910;49.042;9.028;2023-05-20T04:27:50;6.20;;;3.93;;
3789;SDS011;1910;49.042;9.028;2023-05-20T04:30:18;6.45;;;4.47;;
3789;SDS011;1910;49.042;9.028;2023-05-20T04:32:45;5.83;;;3.10;;
3789;SDS011;1910;49.042;9.028;2023-05-20T04:35:12;4.53;;;3.03;;
3789;SDS011;1910;49.042;9.028;2023-05-20T04:37:38;3.22;;;2.92;;
3789;SDS011;1910;49.042;9.028;2023-05-20T04:40:06;5.32;;;3.75;;
3789;SDS011;1910;49.042;9.028;2023-05-20T04:42:33;5.30;;;2.93;;
3789;SDS011;1910;49.042;9.028;2023-05-20T04:44:59;9.60;;;4.30;;
3789;SDS011;1910;49.042;9.028;2023-05-20T04:47:26;5.60;;;3.43;;
3789;SDS011;1910;49.042;9.028;2023-05-20T04:49:53;4.97;;;4.43;;
3789;SDS011;1910;49.042;9.028;2023-05-20T04:52:21;4.30;;;3.90;;
3789;SDS011;1910;49.042;9.028;2023-05-20T04:54:50;4.93;;;3.70;;
3789;SDS011;1910;49.042;9.028;2023-05-20T04:57:16;6.00;;;3.90;;
3789;SDS011;1910;49.042;9.028;2023-05-20T04:59:45;5.10;;;3.57;;
3789;SDS011;1910;49.042;9.028;2023-05-20T05:02:11;6.03;;;4.20;;
3789;SDS011;1910;49.042;9.028;2023-05-20T05:04:37;5.53;;;3.70;;
3789;SDS011;1910;49.042;9.028;2023-05-20T05:07:03;6.57;;;3.60;;
3789;SDS011;1910;49.042;9.028;2023-05-20T05:09:29;5.83;;;3.30;;
3789;SDS011;1910;49.042;9.028;2023-05-20T05:11:55;4.70;;;3.47;;
3789;SDS011;1910;49.042;9.028;2023-05-20T05:14:21;4.97;;;3.80;;
3789;SDS011;1910;49.042;9.028;2023-05-20T05:16:47;6.67;;;3.87;;
3789;SDS011;1910;49.042;9.028;2023-05-20T05:19:13;4.90;;;4.10;;
3789;SDS011;1910;49.042;9.028;2023-05-20T05:21:39;5.17;;;3.80;;
3789;SDS011;1910;49.042;9.028;2023-05-20T05:24:05;6.13;;;3.73;;
3789;SDS011;1910;49.042;9.028;2023-05-20T05:26:31;4.33;;;3.20;;
3789;SDS011;1910;49.042;9.028;2023-05-20T05:28:57;3.90;;;2.70;;
3789;SDS011;1910;49.042;9.028;2023-05-20T05:31:23;3.87;;;2.57;;
3789;SDS011;1910;49.042;9.028;2023-05-20T05:33:49;3.90;;;2.90;;
3789;SDS011;1910;49.042;9.028;2023-05-20T05:36:15;4.73;;;3.93;;
3789;SDS011;1910;49.042;9.028;2023-05-20T05:38:41;3.80;;;3.10;;
3789;SDS011;1910;49.042;9.028;2023-05-20T05:41:08;3.57;;;3.27;;
3789;SDS011;1910;49.042;9.028;2023-05-20T05:43:35;5.97;;;4.07;;
3789;SDS011;1910;49.042;9.028;2023-05-20T05:46:00;5.30;;;3.50;;
3789;SDS011;1910;49.042;9.028;2023-05-20T05:48:26;6.47;;;4.40;;
3789;SDS011;1910;49.042;9.028;2023-05-20T05:50:52;4.93;;;3.93;;
3789;SDS011;1910;49.042;9.028;2023-05-20T05:53:18;5.10;;;3.50;;
3789;SDS011;1910;49.042;9.028;2023-05-20T05:55:45;6.50;;;3.93;;
3789;SDS011;1910;49.042;9.028;2023-05-20T05:58:11;5.00;;;3.77;;
3789;SDS011;1910;49.042;9.028;2023-05-20T06:00:37;3.93;;;3.20;;
3789;SDS011;1910;49.042;9.028;2023-05-20T06:03:03;4.33;;;3.07;;
3789;SDS011;1910;49.042;9.028;2023-05-20T06:05:30;5.13;;;3.60;;
3789;SDS011;1910;49.042;9.028;2023-05-20T06:07:55;6.23;;;3.70;;
3789;SDS011;1910;49.042;9.028;2023-05-20T06:10:21;4.80;;;3.67;;
3789;SDS011;1910;49.042;9.028;2023-05-20T06:12:47;5.23;;;4.33;;
3789;SDS011;1910;49.042;9.028;2023-05-20T06:15:13;4.73;;;3.93;;
3789;SDS011;1910;49.042;9.028;2023-05-20T06:17:40;7.67;;;4.13;;
3789;SDS011;1910;49.042;9.028;2023-05-20T06:20:06;4.13;;;3.83;;
3789;SDS011;1910;49.042;9.028;2023-05-20T06:22:33;4.73;;;4.13;;
3789;SDS011;1910;49.042;9.028;2023-05-20T06:24:58;4.77;;;3.83;;
3789;SDS011;1910;49.042;9.028;2023-05-20T06:27:26;5.10;;;3.70;;
3789;SDS011;1910;49.042;9.028;2023-05-20T06:29:52;5.33;;;4.70;;
3789;SDS011;1910;49.042;9.028;2023-05-20T06:32:18;5.57;;;5.07;;
3789;SDS011;1910;49.042;9.028;2023-05-20T06:34:44;5.30;;;3.77;;
3789;SDS011;1910;49.042;9.028;2023-05-20T06:37:10;7.03;;;4.03;;
3789;SDS011;1910;49.042;9.028;2023-05-20T06:39:36;6.40;;;4.73;;
3789;SDS011;1910;49.042;9.028;2023-05-20T06:42:02;5.83;;;4.20;;
3789;SDS011;1910;49.042;9.028;2023-05-20T06:44:29;4.97;;;4.20;;
3789;SDS011;1910;49.042;9.028;2023-05-20T06:46:55;6.27;;;5.63;;
3789;SDS011;1910;49.042;9.028;2023-05-20T06:49:21;6.27;;;4.20;;
3789;SDS011;1910;49.042;9.028;2023-05-20T06:51:48;6.10;;;4.30;;
3789;SDS011;1910;49.042;9.028;2023-05-20T06:54:14;5.40;;;4.80;;
3789;SDS011;1910;49.042;9.028;2023-05-20T06:56:40;5.80;;;3.77;;
3789;SDS011;1910;49.042;9.028;2023-05-20T06:59:06;5.50;;;4.73;;
3789;SDS011;1910;49.042;9.028;2023-05-20T07:01:32;8.37;;;4.97;;
3789;SDS011;1910;49.042;9.028;2023-05-20T07:03:58;6.93;;;4.70;;
3789;SDS011;1910;49.042;9.028;2023-05-20T07:06:24;6.80;;;5.00;;
3789;SDS011;1910;49.042;9.028;2023-05-20T07:08:50;7.07;;;4.63;;
3789;SDS011;1910;49.042;9.028;2023-05-20T07:11:16;5.73;;;4.60;;
3789;SDS011;1910;49.042;9.028;2023-05-20T07:13:42;7.20;;;5.93;;
3789;SDS011;1910;49.042;9.028;2023-05-20T07:16:08;6.23;;;4.13;;
3789;SDS011;1910;49.042;9.028;2023-05-20T07:18:34;7.63;;;4.80;;
3789;SDS011;1910;49.042;9.028;2023-05-20T07:21:00;8.50;;;4.37;;
3789;SDS011;1910;49.042;9.028;2023-05-20T07:23:26;7.83;;;5.27;;
3789;SDS011;1910;49.042;9.028;2023-05-20T07:25:52;6.97;;;4.80;;
3789;SDS011;1910;49.042;9.028;2023-05-20T07:28:18;4.80;;;4.30;;
3789;SDS011;1910;49.042;9.028;2023-05-20T07:30:45;6.80;;;4.50;;
3789;SDS011;1910;49.042;9.028;2023-05-20T07:33:14;7.33;;;4.77;;
3789;SDS011;1910;49.042;9.028;2023-05-20T07:35:41;4.87;;;4.13;;
3789;SDS011;1910;49.042;9.028;2023-05-20T07:38:07;6.00;;;4.87;;
3789;SDS011;1910;49.042;9.028;2023-05-20T07:40:33;5.73;;;4.90;;
3789;SDS011;1910;49.042;9.028;2023-05-20T07:43:00;5.93;;;5.00;;
3789;SDS011;1910;49.042;9.028;2023-05-20T07:45:26;8.53;;;5.17;;
3789;SDS011;1910;49.042;9.028;2023-05-20T07:47:52;5.43;;;4.77;;
3789;SDS011;1910;49.042;9.028;2023-05-20T07:50:18;6.17;;;4.67;;
3789;SDS011;1910;49.042;9.028;2023-05-20T07:52:45;6.30;;;4.00;;
3789;SDS011;1910;49.042;9.028;2023-05-20T07:55:12;6.07;;;4.73;;
3789;SDS011;1910;49.042;9.028;2023-05-20T07:57:38;5.33;;;4.70;;
3789;SDS011;1910;49.042;9.028;2023-05-20T08:00:04;8.03;;;5.40;;
3789;SDS011;1910;49.042;9.028;2023-05-20T08:02:30;5.70;;;4.50;;
3789;SDS011;1910;49.042;9.028;2023-05-20T08:04:56;6.93;;;5.23;;
3789;SDS011;1910;49.042;9.028;2023-05-20T08:07:22;8.97;;;5.57;;
3789;SDS011;1910;49.042;9.028;2023-05-20T08:09:48;5.90;;;5.10;;
3789;SDS011;1910;49.042;9.028;2023-05-20T08:12:14;8.80;;;4.67;;
3789;SDS011;1910;49.042;9.028;2023-05-20T08:14:40;7.73;;;5.37;;
3789;SDS011;1910;49.042;9.028;2023-05-20T08:17:08;6.47;;;5.20;;
3789;SDS011;1910;49.042;9.028;2023-05-20T08:19:33;6.00;;;4.53;;
3789;SDS011;1910;49.042;9.028;2023-05-20T08:22:00;13.67;;;5.10;;
3789;SDS011;1910;49.042;9.028;2023-05-20T08:24:26;5.80;;;4.97;;
3789;SDS011;1910;49.042;9.028;2023-05-20T08:26:52;6.73;;;4.40;;
3789;SDS011;1910;49.042;9.028;2023-05-20T08:29:18;6.80;;;4.40;;
3789;SDS011;1910;49.042;9.028;2023-05-20T08:31:44;5.80;;;4.80;;
3789;SDS011;1910;49.042;9.028;2023-05-20T08:34:10;7.33;;;5.60;;
3789;SDS011;1910;49.042;9.028;2023-05-20T08:36:36;9.17;;;6.23;;
3789;SDS011;1910;49.042;9.028;2023-05-20T08:39:02;5.03;;;4.50;;
3789;SDS011;1910;49.042;9.028;2023-05-20T08:41:28;15.40;;;5.77;;
3789;SDS011;1910;49.042;9.028;2023-05-20T08:43:54;6.90;;;5.57;;
3789;SDS011;1910;49.042;9.028;2023-05-20T08:46:21;7.13;;;4.93;;
3789;SDS011;1910;49.042;9.028;2023-05-20T08:48:47;10.30;;;4.67;;
3789;SDS011;1910;49.042;9.028;2023-05-20T08:51:13;14.00;;;5.70;;
3789;SDS011;1910;49.042;9.028;2023-05-20T08:53:41;18.93;;;6.90;;
3789;SDS011;1910;49.042;9.028;2023-05-20T08:56:07;19.67;;;5.60;;
3789;SDS011;1910;49.042;9.028;2023-05-20T08:58:35;8.33;;;5.90;;
3789;SDS011;1910;49.042;9.028;2023-05-20T09:01:01;8.13;;;5.17;;
3789;SDS011;1910;49.042;9.028;2023-05-20T09:03:27;6.73;;;5.37;;
3789;SDS011;1910;49.042;9.028;2023-05-20T09:06:02;5.90;;;5.03;;
3789;SDS011;1910;49.042;9.028;2023-05-20T09:08:31;7.63;;;5.37;;
3789;SDS011;1910;49.042;9.028;2023-05-20T09:10:58;6.30;;;5.07;;
3789;SDS011;1910;49.042;9.028;2023-05-20T09:13:24;8.00;;;5.67;;
3789;SDS011;1910;49.042;9.028;2023-05-20T09:15:50;6.43;;;5.40;;
3789;SDS011;1910;49.042;9.028;2023-05-20T09:18:16;6.63;;;5.07;;
3789;SDS011;1910;49.042;9.028;2023-05-20T09:20:42;6.80;;;4.87;;
3789;SDS011;1910;49.042;9.028;2023-05-20T09:23:08;6.80;;;5.30;;
3789;SDS011;1910;49.042;9.028;2023-05-20T09:25:34;8.10;;;4.70;;
3789;SDS011;1910;49.042;9.028;2023-05-20T09:28:01;6.23;;;5.00;;
3789;SDS011;1910;49.042;9.028;2023-05-20T09:30:28;9.07;;;6.00;;
3789;SDS011;1910;49.042;9.028;2023-05-20T09:32:55;6.40;;;5.33;;
3789;SDS011;1910;49.042;9.028;2023-05-20T09:35:22;8.13;;;6.17;;
3789;SDS011;1910;49.042;9.028;2023-05-20T09:37:50;8.17;;;5.30;;
3789;SDS011;1910;49.042;9.028;2023-05-20T09:40:18;7.63;;;5.80;;
3789;SDS011;1910;49.042;9.028;2023-05-20T09:42:55;7.17;;;5.40;;
3789;SDS011;1910;49.042;9.028;2023-05-20T09:45:26;8.63;;;5.33;;
3789;SDS011;1910;49.042;9.028;2023-05-20T09:47:52;6.23;;;5.30;;
3789;SDS011;1910;49.042;9.028;2023-05-20T09:50:19;5.43;;;4.50;;
3789;SDS011;1910;49.042;9.028;2023-05-20T09:52:46;11.10;;;5.43;;
3789;SDS011;1910;49.042;9.028;2023-05-20T09:55:13;7.83;;;5.03;;
3789;SDS011;1910;49.042;9.028;2023-05-20T09:57:39;8.23;;;4.30;;
3789;SDS011;1910;49.042;9.028;2023-05-20T10:00:05;5.60;;;4.63;;
3789;SDS011;1910;49.042;9.028;2023-05-20T10:02:49;6.07;;;5.07;;
3789;SDS011;1910;49.042;9.028;2023-05-20T10:05:17;9.23;;;5.47;;
3789;SDS011;1910;49.042;9.028;2023-05-20T10:10:46;6.07;;;4.67;;
3789;SDS011;1910;49.042;9.028;2023-05-20T10:16:16;6.33;;;5.40;;
3789;SDS011;1910;49.042;9.028;2023-05-20T10:21:26;7.57;;;5.43;;
3789;SDS011;1910;49.042;9.028;2023-05-20T10:23:51;6.57;;;4.93;;
3789;SDS011;1910;49.042;9.028;2023-05-20T10:26:17;9.00;;;5.40;;
3789;SDS011;1910;49.042;9.028;2023-05-20T10:28:43;6.43;;;5.13;;
3789;SDS011;1910;49.042;9.028;2023-05-20T10:31:14;6.33;;;4.90;;
3789;SDS011;1910;49.042;9.028;2023-05-20T10:33:45;7.93;;;5.50;;
3789;SDS011;1910;49.042;9.028;2023-05-20T10:36:21;5.73;;;4.67;;
3789;SDS011;1910;49.042;9.028;2023-05-20T10:38:51;7.23;;;5.20;;
3789;SDS011;1910;49.042;9.028;2023-05-20T10:41:24;6.30;;;4.47;;
3789;SDS011;1910;49.042;9.028;2023-05-20T10:44:04;6.60;;;5.37;;
3789;SDS011;1910;49.042;9.028;2023-05-20T10:46:31;6.30;;;5.07;;
3789;SDS011;1910;49.042;9.028;2023-05-20T10:48:57;6.70;;;5.30;;
3789;SDS011;1910;49.042;9.028;2023-05-20T10:51:23;10.17;;;5.40;;
3789;SDS011;1910;49.042;9.028;2023-05-20T10:53:53;24.27;;;9.20;;
3789;SDS011;1910;49.042;9.028;2023-05-20T10:56:20;7.20;;;4.83;;
3789;SDS011;1910;49.042;9.028;2023-05-20T10:58:50;14.47;;;7.53;;
3789;SDS011;1910;49.042;9.028;2023-05-20T11:01:17;8.30;;;4.97;;
3789;SDS011;1910;49.042;9.028;2023-05-20T11:03:43;10.00;;;5.90;;
3789;SDS011;1910;49.042;9.028;2023-05-20T11:06:13;19.80;;;6.23;;
3789;SDS011;1910;49.042;9.028;2023-05-20T11:08:40;6.03;;;4.87;;
3789;SDS011;1910;49.042;9.028;2023-05-20T11:11:06;6.70;;;5.13;;
3789;SDS011;1910;49.042;9.028;2023-05-20T11:13:32;6.73;;;4.77;;
3789;SDS011;1910;49.042;9.028;2023-05-20T11:15:59;7.53;;;5.60;;
3789;SDS011;1910;49.042;9.028;2023-05-20T11:18:26;8.00;;;5.50;;
3789;SDS011;1910;49.042;9.028;2023-05-20T11:20:54;6.70;;;5.10;;
3789;SDS011;1910;49.042;9.028;2023-05-20T11:23:20;6.53;;;5.30;;
3789;SDS011;1910;49.042;9.028;2023-05-20T11:25:48;6.37;;;5.00;;
3789;SDS011;1910;49.042;9.028;2023-05-20T11:28:15;6.27;;;4.90;;
3789;SDS011;1910;49.042;9.028;2023-05-20T11:30:43;7.93;;;5.77;;
3789;SDS011;1910;49.042;9.028;2023-05-20T11:33:13;7.13;;;5.10;;
3789;SDS011;1910;49.042;9.028;2023-05-20T11:35:46;18.40;;;6.60;;
3789;SDS011;1910;49.042;9.028;2023-05-20T11:38:13;8.03;;;5.00;;
3789;SDS011;1910;49.042;9.028;2023-05-20T11:40:43;6.57;;;5.10;;
3789;SDS011;1910;49.042;9.028;2023-05-20T11:43:19;7.10;;;5.10;;
3789;SDS011;1910;49.042;9.028;2023-05-20T11:45:46;8.37;;;4.80;;
3789;SDS011;1910;49.042;9.028;2023-05-20T11:48:17;27.93;;;8.10;;
3789;SDS011;1910;49.042;9.028;2023-05-20T11:50:44;19.03;;;6.93;;
3789;SDS011;1910;49.042;9.028;2023-05-20T11:53:17;13.87;;;4.80;;
3789;SDS011;1910;49.042;9.028;2023-05-20T11:55:44;6.10;;;4.10;;
3789;SDS011;1910;49.042;9.028;2023-05-20T11:58:20;8.13;;;4.67;;
3789;SDS011;1910;49.042;9.028;2023-05-20T12:00:47;6.00;;;5.10;;
3789;SDS011;1910;49.042;9.028;2023-05-20T12:03:13;6.23;;;4.70;;
3789;SDS011;1910;49.042;9.028;2023-05-20T12:05:39;6.07;;;4.90;;
3789;SDS011;1910;49.042;9.028;2023-05-20T12:08:05;6.60;;;4.93;;
3789;SDS011;1910;49.042;9.028;2023-05-20T12:10:32;6.70;;;5.00;;
3789;SDS011;1910;49.042;9.028;2023-05-20T12:12:58;6.10;;;4.50;;
3789;SDS011;1910;49.042;9.028;2023-05-20T12:15:24;6.83;;;4.90;;
3789;SDS011;1910;49.042;9.028;2023-05-20T12:17:51;8.73;;;5.00;;
3789;SDS011;1910;49.042;9.028;2023-05-20T12:20:19;5.60;;;4.80;;
3789;SDS011;1910;49.042;9.028;2023-05-20T12:22:48;5.37;;;3.90;;
3789;SDS011;1910;49.042;9.028;2023-05-20T12:25:14;6.33;;;4.50;;
3789;SDS011;1910;49.042;9.028;2023-05-20T12:27:41;5.90;;;5.27;;
3789;SDS011;1910;49.042;9.028;2023-05-20T12:30:08;5.80;;;5.17;;
3789;SDS011;1910;49.042;9.028;2023-05-20T12:32:34;5.30;;;4.70;;
3789;SDS011;1910;49.042;9.028;2023-05-20T12:35:03;8.90;;;5.23;;
3789;SDS011;1910;49.042;9.028;2023-05-20T12:37:29;6.97;;;4.43;;
3789;SDS011;1910;49.042;9.028;2023-05-20T12:39:55;6.27;;;4.73;;
3789;SDS011;1910;49.042;9.028;2023-05-20T12:42:21;7.30;;;4.97;;
3789;SDS011;1910;49.042;9.028;2023-05-20T12:44:47;6.10;;;4.07;;
3789;SDS011;1910;49.042;9.028;2023-05-20T12:47:13;7.47;;;4.30;;
3789;SDS011;1910;49.042;9.028;2023-05-20T12:49:39;6.57;;;4.43;;
3789;SDS011;1910;49.042;9.028;2023-05-20T12:52:05;6.03;;;4.73;;
3789;SDS011;1910;49.042;9.028;2023-05-20T12:54:31;7.37;;;5.23;;
3789;SDS011;1910;49.042;9.028;2023-05-20T12:56:57;6.17;;;5.07;;
3789;SDS011;1910;49.042;9.028;2023-05-20T12:59:23;5.83;;;4.70;;
3789;SDS011;1910;49.042;9.028;2023-05-20T13:01:49;6.70;;;4.80;;
3789;SDS011;1910;49.042;9.028;2023-05-20T13:04:15;7.80;;;5.93;;
3789;SDS011;1910;49.042;9.028;2023-05-20T13:06:41;5.30;;;4.80;;
3789;SDS011;1910;49.042;9.028;2023-05-20T13:09:07;6.83;;;4.83;;
3789;SDS011;1910;49.042;9.028;2023-05-20T13:11:33;6.63;;;5.30;;
3789;SDS011;1910;49.042;9.028;2023-05-20T13:13:59;4.93;;;4.20;;
3789;SDS011;1910;49.042;9.028;2023-05-20T13:16:25;7.90;;;4.97;;
3789;SDS011;1910;49.042;9.028;2023-05-20T13:18:51;5.80;;;4.60;;
3789;SDS011;1910;49.042;9.028;2023-05-20T13:21:17;6.00;;;5.03;;
3789;SDS011;1910;49.042;9.028;2023-05-20T13:23:43;10.13;;;5.30;;
3789;SDS011;1910;49.042;9.028;2023-05-20T13:26:09;6.30;;;4.80;;
3789;SDS011;1910;49.042;9.028;2023-05-20T13:28:35;5.27;;;4.37;;
3789;SDS011;1910;49.042;9.028;2023-05-20T13:31:03;7.10;;;4.97;;
3789;SDS011;1910;49.042;9.028;2023-05-20T13:33:29;10.40;;;5.20;;
3789;SDS011;1910;49.042;9.028;2023-05-20T13:35:55;8.13;;;5.23;;
3789;SDS011;1910;49.042;9.028;2023-05-20T13:38:21;7.30;;;5.43;;
3789;SDS011;1910;49.042;9.028;2023-05-20T13:40:48;7.03;;;4.53;;
3789;SDS011;1910;49.042;9.028;2023-05-20T13:43:14;6.07;;;5.47;;
3789;SDS011;1910;49.042;9.028;2023-05-20T13:45:41;7.43;;;5.50;;
3789;SDS011;1910;49.042;9.028;2023-05-20T13:48:06;8.47;;;5.60;;
3789;SDS011;1910;49.042;9.028;2023-05-20T13:50:32;8.07;;;5.77;;
3789;SDS011;1910;49.042;9.028;2023-05-20T13:52:58;7.07;;;5.30;;
3789;SDS011;1910;49.042;9.028;2023-05-20T13:55:24;6.10;;;4.97;;
3789;SDS011;1910;49.042;9.028;2023-05-20T13:57:50;6.77;;;5.10;;
3789;SDS011;1910;49.042;9.028;2023-05-20T14:00:18;6.13;;;4.73;;
3789;SDS011;1910;49.042;9.028;2023-05-20T14:02:44;10.00;;;4.53;;
3789;SDS011;1910;49.042;9.028;2023-05-20T14:05:10;8.20;;;5.03;;
3789;SDS011;1910;49.042;9.028;2023-05-20T14:07:36;6.53;;;4.97;;
3789;SDS011;1910;49.042;9.028;2023-05-20T14:10:03;7.27;;;5.00;;
3789;SDS011;1910;49.042;9.028;2023-05-20T14:12:29;7.57;;;5.63;;
3789;SDS011;1910;49.042;9.028;2023-05-20T14:14:55;7.33;;;5.07;;
3789;SDS011;1910;49.042;9.028;2023-05-20T14:17:21;5.20;;;4.43;;
3789;SDS011;1910;49.042;9.028;2023-05-20T14:19:47;7.80;;;4.70;;
3789;SDS011;1910;49.042;9.028;2023-05-20T14:22:13;8.00;;;4.80;;
3789;SDS011;1910;49.042;9.028;2023-05-20T14:24:39;8.57;;;6.07;;
3789;SDS011;1910;49.042;9.028;2023-05-20T14:27:05;6.80;;;5.10;;
3789;SDS011;1910;49.042;9.028;2023-05-20T14:29:31;8.70;;;5.97;;
3789;SDS011;1910;49.042;9.028;2023-05-20T14:31:57;6.67;;;4.47;;
3789;SDS011;1910;49.042;9.028;2023-05-20T14:34:25;8.90;;;5.13;;
3789;SDS011;1910;49.042;9.028;2023-05-20T14:36:51;5.73;;;4.60;;
3789;SDS011;1910;49.042;9.028;2023-05-20T14:39:17;5.97;;;5.43;;
3789;SDS011;1910;49.042;9.028;2023-05-20T14:41:43;7.53;;;5.27;;
3789;SDS011;1910;49.042;9.028;2023-05-20T14:44:09;6.20;;;5.20;;
3789;SDS011;1910;49.042;9.028;2023-05-20T14:46:34;7.30;;;5.37;;
3789;SDS011;1910;49.042;9.028;2023-05-20T14:49:00;7.57;;;5.50;;
3789;SDS011;1910;49.042;9.028;2023-05-20T14:51:26;6.40;;;5.60;;
3789;SDS011;1910;49.042;9.028;2023-05-20T14:53:52;5.23;;;4.73;;
3789;SDS011;1910;49.042;9.028;2023-05-20T14:56:18;7.17;;;4.97;;
3789;SDS011;1910;49.042;9.028;2023-05-20T14:58:44;7.37;;;5.53;;
3789;SDS011;1910;49.042;9.028;2023-05-20T15:01:10;6.77;;;5.10;;
3789;SDS011;1910;49.042;9.028;2023-05-20T15:03:36;7.97;;;5.37;;
3789;SDS011;1910;49.042;9.028;2023-05-20T15:06:02;6.40;;;5.17;;
3789;SDS011;1910;49.042;9.028;2023-05-20T15:08:28;7.30;;;5.70;;
3789;SDS011;1910;49.042;9.028;2023-05-20T15:10:55;6.53;;;5.10;;
3789;SDS011;1910;49.042;9.028;2023-05-20T15:13:21;6.83;;;6.10;;
3789;SDS011;1910;49.042;9.028;2023-05-20T15:15:47;6.20;;;5.43;;
3789;SDS011;1910;49.042;9.028;2023-05-20T15:18:13;7.90;;;6.37;;
3789;SDS011;1910;49.042;9.028;2023-05-20T15:20:39;5.97;;;5.03;;